Weather History for KFTK - December, 2012

Change the Weather History Date:

Saturday, December 29, 2012

  Actual Average Record
Temperature  
Mean Temperature 28 °F -  
Max Temperature 32 °F 39 °F 62 °F (1996)
Min Temperature 24 °F 25 °F 12 °F (2001)
Degree Days  
Heating Degree Days 37    
Moisture  
Dew Point 30 °F    
Average Humidity 95    
Maximum Humidity 100    
Minimum Humidity 78    
Precipitation  
Precipitation 0.10 in - - ()
Sea Level Pressure  
Sea Level Pressure 29.89 in    
Wind  
Wind Speed 6 mph (WNW)    
Max Wind Speed 17 mph    
Max Gust Speed 25 mph    
Visibility 6 miles    
Events Snow    
Averages and records for this station are not official NWS values.
T = Trace of Precipitation, MM = Missing Value Source: NWS Daily Summary

Daily Weather History Graph

Daily Weather History Graph

Search for Another Location

Airport or City:

Trip Planner

Search our weather history database for the weather conditions in past years. The results will help you decide how hot, cold, wet, or windy it might be!

Date:

Astronomy

Dec. 29, 2012 Rise Set
Actual Time 7:59 AM EST 5:33 PM EST
Civil Twilight 7:29 AM EST 6:02 PM EST
Nautical Twilight 6:56 AM EST 6:35 PM EST
Astronomical Twilight 6:24 AM EST 7:07 PM EST
Moon 7:03 PM EST (12/29) 8:33 AM EST (12/29)
Length of Visible Light 10h 33m
Length of Day
9h 34m
Full, 98% of the Moon is Illuminated
Dec 29
Full
Jan 4
Last Quarter
Jan 11
New
Jan 18
First Quarter
Jan 26
Full

Hourly Weather History & Observations

Time (EST) Temp. Windchill Dew Point Humidity Pressure Visibility Wind Dir Wind Speed Gust Speed Precip Events Conditions
12:55 AM 32.5 °F 27.1 °F 31.8 °F 97% 29.75 in 3.0 mi East 5.8 mph - 0.01 in Snow Light Snow
1:16 AM 32.0 °F 28.7 °F 32.0 °F 100% 29.75 in 2.5 mi NNE 3.5 mph - N/A Snow Light Snow
1:29 AM 32.0 °F 28.7 °F 32.0 °F 100% 29.75 in 3.0 mi North 3.5 mph - N/A Snow Light Snow
1:30 AM 32.0 °F 27.5 °F 32.0 °F 100% 29.74 in 3.0 mi NNE 4.6 mph - N/A Snow Light Snow
1:32 AM 32.0 °F 27.5 °F 32.0 °F 100% 29.74 in 3.0 mi NNE 4.6 mph - N/A Snow Light Snow
1:54 AM 32.0 °F 28.7 °F 32.0 °F 100% 29.75 in 2.5 mi North 3.5 mph - N/A Snow Light Snow
1:55 AM 32.4 °F 29.1 °F 31.6 °F 97% 29.75 in 2.5 mi North 3.5 mph - 0.03 in Snow Light Snow
1:59 AM 32.0 °F 28.7 °F 32.0 °F 100% 29.74 in 2.0 mi North 3.5 mph - N/A Snow Light Snow
2:02 AM 32.0 °F 28.7 °F 32.0 °F 100% 29.74 in 2.0 mi North 3.5 mph - N/A Snow Light Snow
2:08 AM 32.0 °F 28.7 °F 32.0 °F 100% 29.75 in 2.0 mi North 3.5 mph - N/A Snow Light Snow
2:09 AM 32.0 °F 28.7 °F 32.0 °F 100% 29.74 in 2.0 mi North 3.5 mph - N/A Snow Light Snow
2:14 AM 32.0 °F 28.7 °F 32.0 °F 100% 29.74 in 2.5 mi North 3.5 mph - N/A Snow Light Snow
2:16 AM 32.0 °F 28.7 °F 32.0 °F 100% 29.74 in 2.5 mi Variable 3.5 mph - N/A Snow Light Snow
2:20 AM 32.0 °F - 32.0 °F 100% 29.75 in 3.0 mi Calm Calm - N/A Snow Light Snow
2:23 AM 32.0 °F - 32.0 °F 100% 29.74 in 3.0 mi Calm Calm - N/A Snow Light Snow
2:39 AM 32.0 °F 28.7 °F 32.0 °F 100% 29.74 in 5.0 mi NNW 3.5 mph - N/A Snow Light Snow
2:49 AM 32.0 °F 28.7 °F 32.0 °F 100% 29.74 in 6.0 mi NNW 3.5 mph - N/A Snow Light Snow
2:55 AM 32.4 °F 29.1 °F 31.8 °F 98% 29.75 in 5.0 mi NW 3.5 mph - 0.03 in Snow Light Snow
3:10 AM 32.0 °F 27.5 °F 32.0 °F 100% 29.75 in 4.0 mi WNW 4.6 mph - N/A Snow Light Snow
3:13 AM 32.0 °F 28.7 °F 32.0 °F 100% 29.75 in 4.0 mi West 3.5 mph - N/A Snow Light Snow
3:15 AM 32.0 °F 27.5 °F 32.0 °F 100% 29.76 in 4.0 mi West 4.6 mph - N/A Snow Light Snow
3:24 AM 32.0 °F 27.5 °F 32.0 °F 100% 29.75 in 4.0 mi WNW 4.6 mph - N/A Snow Light Snow
3:28 AM 32.0 °F 27.5 °F 32.0 °F 100% 29.75 in 4.0 mi WNW 4.6 mph - N/A Snow Light Snow
3:34 AM 32.0 °F 26.4 °F 32.0 °F 100% 29.75 in 3.0 mi WNW 5.8 mph - N/A Snow Light Snow
3:40 AM 32.0 °F 26.4 °F 32.0 °F 100% 29.75 in 4.0 mi WNW 5.8 mph - N/A Snow Light Snow
3:42 AM 32.0 °F 27.5 °F 32.0 °F 100% 29.75 in 4.0 mi WNW 4.6 mph - N/A Snow Light Snow
3:44 AM 32.0 °F 27.5 °F 32.0 °F 100% 29.75 in 4.0 mi WNW 4.6 mph - N/A Snow Light Snow
3:55 AM 32.4 °F 26.0 °F 31.8 °F 98% 29.75 in 5.0 mi WNW 6.9 mph - 0.01 in Snow Light Snow
4:42 AM 32.0 °F 23.6 °F 32.0 °F 100% 29.77 in 2.5 mi WNW 10.4 mph - N/A Snow Light Snow
4:55 AM 32.4 °F 23.5 °F 31.8 °F 98% 29.78 in 2.5 mi WNW 11.5 mph - 0.01 in Snow Light Snow
4:57 AM 32.0 °F 23.6 °F 32.0 °F 100% 29.78 in 3.0 mi WNW 10.4 mph - N/A Snow Light Snow
5:10 AM 32.0 °F 24.2 °F 32.0 °F 100% 29.78 in 2.5 mi West 9.2 mph - N/A Snow Light Snow
5:21 AM 32.0 °F 24.2 °F 32.0 °F 100% 29.78 in 3.0 mi WNW 9.2 mph - N/A Snow Light Snow
5:27 AM 32.0 °F 24.8 °F 32.0 °F 100% 29.79 in 2.5 mi WNW 8.1 mph - N/A Snow Light Snow
5:45 AM 32.0 °F 23.6 °F 32.0 °F 100% 29.80 in 2.0 mi WNW 10.4 mph - N/A Snow Light Snow
5:53 AM 32.0 °F 24.2 °F 32.0 °F 100% 29.81 in 3.0 mi WNW 9.2 mph 17.3 mph N/A Snow Light Snow
5:55 AM 32.4 °F 24.6 °F 31.6 °F 97% 29.81 in 3.0 mi WNW 9.2 mph 17.3 mph 0.01 in Snow Light Snow
6:21 AM 32.0 °F 23.6 °F 32.0 °F 100% 29.82 in 5.0 mi WNW 10.4 mph - N/A Snow Light Snow
6:34 AM 32.0 °F 23.6 °F 32.0 °F 100% 29.83 in 6.0 mi WNW 10.4 mph - N/A   Overcast
6:37 AM 32.0 °F 25.6 °F 32.0 °F 100% 29.83 in 7.0 mi WNW 6.9 mph - N/A   Overcast
6:55 AM 32.0 °F 24.8 °F 31.1 °F 96% 29.84 in 6.0 mi NW 8.1 mph 17.3 mph 0.00 in   Overcast
6:59 AM 32.0 °F 24.2 °F 30.2 °F 93% 29.84 in 6.0 mi NW 9.2 mph - N/A   Overcast
7:55 AM 31.5 °F 22.3 °F 29.5 °F 92% 29.88 in 10.0 mi WNW 11.5 mph - N/A   Overcast
8:55 AM 31.3 °F 23.3 °F 28.9 °F 91% 29.92 in 10.0 mi WNW 9.2 mph - N/A   Overcast
9:55 AM 31.3 °F 24.7 °F 29.3 °F 92% 29.96 in 10.0 mi West 6.9 mph - N/A   Overcast
10:55 AM 31.3 °F 23.9 °F 29.5 °F 93% 29.99 in 10.0 mi West 8.1 mph - N/A   Overcast
11:55 AM 31.5 °F 24.9 °F 29.7 °F 93% 30.00 in 7.0 mi West 6.9 mph - 0.00 in   Overcast
12:55 PM 32.0 °F 24.8 °F 30.2 °F 93% 29.99 in 10.0 mi West 8.1 mph - N/A   Overcast
1:55 PM 32.2 °F 23.8 °F 29.7 °F 90% 30.00 in 10.0 mi West 10.4 mph 21.9 mph N/A   Overcast
2:55 PM 31.5 °F 21.4 °F 27.7 °F 86% 30.03 in 10.0 mi West 13.8 mph - 0.00 in   Overcast
3:55 PM 29.8 °F 19.8 °F 25.9 °F 85% 30.06 in 10.0 mi West 12.7 mph - N/A   Overcast
4:35 PM 28.4 °F 16.6 °F 24.8 °F 86% 30.06 in 5.0 mi West 16.1 mph - N/A Snow Light Snow
4:55 PM 28.9 °F 18.6 °F 24.8 °F 84% 30.11 in 7.0 mi West 12.7 mph - 0.00 in Snow Light Snow
5:55 PM 28.4 °F 20.4 °F 24.6 °F 86% 30.14 in 10.0 mi West 8.1 mph - 0.00 in Snow Light Snow
6:55 PM 28.0 °F 18.6 °F 24.3 °F 86% 30.18 in 10.0 mi West 10.4 mph - 0.00 in Snow Light Snow
7:55 PM 27.0 °F 14.7 °F 21.4 °F 79% 30.22 in 10.0 mi West 16.1 mph 25.3 mph 0.00 in Snow Light Snow
8:55 PM 26.1 °F 14.5 °F 20.1 °F 78% 30.25 in 10.0 mi West 13.8 mph - 0.00 in   Overcast
9:55 PM 25.5 °F 12.4 °F 19.6 °F 78% 30.27 in 10.0 mi WNW 17.3 mph 24.2 mph 0.00 in Snow Light Snow
10:33 PM 24.8 °F 15.3 °F 19.4 °F 80% 30.29 in 10.0 mi West 9.2 mph - N/A   Overcast
10:55 PM 25.5 °F 13.3 °F 20.3 °F 81% 30.30 in 10.0 mi West 15.0 mph - 0.00 in Snow Light Snow
11:49 PM 24.8 °F 15.3 °F 21.2 °F 86% 30.32 in 10.0 mi West 9.2 mph 18.4 mph N/A Snow Light Snow
11:55 PM 25.5 °F 15.5 °F 20.7 °F 82% 30.32 in 10.0 mi West 10.4 mph - 0.00 in Snow Light Snow
11:59 PM 24.8 °F 16.1 °F 21.2 °F 86% 30.32 in 10.0 mi West 8.1 mph - N/A   Overcast